^^
Grace C. Lehan Memorial Weather Station Historical Data
Daily Summary for January 26, 2022 Units:  Both    English   Metric
Daily Weekly Monthly Yearly
  High: Low: Average:
Temperature: 27.7 °F /  -2.4 °C 15.2 °F /  -9.3 °C 21.8 °F /  -5.7 °C
Dew Point: 14.7 °F /  -9.6 °C 1.2 °F /  -17.1 °C 6.8 °F /  -14 °C
Humidity: 74.8% 33.2% 53%
Wind Speed: 13.3mph /  21.4km/h - 3mph /  4.8km/h
Wind Gust: 24mph /  38.6km/h - -
Wind- - NW
Pressure: 30.45 in /  1031 hPa 30.14 in /  1020.5 hPa -
Precipitation: 0.00 in /  0 mm    
 
 
Tabular Data for January 26, 2022
Time Temperature Dew Point Pressure Wind Wind Speed Wind Gust Humidity Rainfall Rate (Hourly) solar
00:04 25.2 °F /  -3.8 °C 14.7 °F /  -9.6 °C 30.14in /  1020.5hPa NW 2.8mph /  4.5km/h 16mph /  25.7km/h 64% 0.00in /  0mm 0 W/m2
00:09 25.1 °F /  -3.8 °C 14.6 °F /  -9.7 °C 30.14in /  1020.5hPa NW 5mph /  8km/h 11mph /  17.7km/h 64% 0.00in /  0mm 0 W/m2
00:14 24.9 °F /  -3.9 °C 14.5 °F /  -9.7 °C 30.14in /  1020.5hPa NW 1.9mph /  3.1km/h 11mph /  17.7km/h 64% 0.00in /  0mm 0 W/m2
00:19 24.8 °F /  -4 °C 14.6 °F /  -9.7 °C 30.14in /  1020.5hPa NW 0.7mph /  1.1km/h 11mph /  17.7km/h 64.4% 0.00in /  0mm 0 W/m2
00:24 24.7 °F /  -4.1 °C 14.6 °F /  -9.7 °C 30.14in /  1020.5hPa NW 0.9mph /  1.4km/h 11mph /  17.7km/h 65% 0.00in /  0mm 0 W/m2
00:29 24.6 °F /  -4.1 °C 14.5 °F /  -9.7 °C 30.15in /  1020.9hPa NW 1.9mph /  3.1km/h 11mph /  17.7km/h 65% 0.00in /  0mm 0 W/m2
00:34 24.4 °F /  -4.2 °C 14.6 °F /  -9.7 °C 30.14in /  1020.5hPa NW 1.3mph /  2.1km/h 11mph /  17.7km/h 65.7% 0.00in /  0mm 0 W/m2
00:39 24.3 °F /  -4.3 °C 14.6 °F /  -9.7 °C 30.15in /  1020.9hPa WNW 1.1mph /  1.8km/h 7mph /  11.3km/h 66% 0.00in /  0mm 0 W/m2
00:44 24.2 °F /  -4.3 °C 14.5 °F /  -9.7 °C 30.15in /  1020.9hPa NW 3.6mph /  5.8km/h 12mph /  19.3km/h 66.2% 0.00in /  0mm 0 W/m2
00:49 24.1 °F /  -4.4 °C 14.6 °F /  -9.7 °C 30.14in /  1020.5hPa NW 3.5mph /  5.6km/h 12mph /  19.3km/h 66.8% 0.00in /  0mm 0 W/m2
00:54 24 °F /  -4.4 °C 14.7 °F /  -9.6 °C 30.15in /  1020.9hPa NW 3.5mph /  5.6km/h 12mph /  19.3km/h 67% 0.00in /  0mm 0 W/m2
00:59 23.9 °F /  -4.5 °C 14.6 °F /  -9.7 °C 30.15in /  1020.9hPa NNW 0.9mph /  1.4km/h 12mph /  19.3km/h 67% 0.00in /  0mm 0 W/m2
01:04 23.9 °F /  -4.5 °C 14.5 °F /  -9.7 °C 30.15in /  1020.9hPa NW 2.1mph /  3.4km/h 12mph /  19.3km/h 67% 0.00in /  0mm 0 W/m2
01:09 23.7 °F /  -4.6 °C 14.4 °F /  -9.8 °C 30.15in /  1020.9hPa NW 0.7mph /  1.1km/h 10mph /  16.1km/h 67% 0.00in /  0mm 0 W/m2
01:14 23.6 °F /  -4.7 °C 14.5 °F /  -9.7 °C 30.15in /  1020.9hPa WNW 1.4mph /  2.3km/h 10mph /  16.1km/h 67.5% 0.00in /  0mm 0 W/m2
01:19 23.5 °F /  -4.7 °C 14.5 °F /  -9.7 °C 30.15in /  1020.9hPa WNW 1.4mph /  2.3km/h 10mph /  16.1km/h 68% 0.00in /  0mm 0 W/m2
01:24 23.4 °F /  -4.8 °C 14.4 °F /  -9.8 °C 30.15in /  1020.9hPa WNW 1.8mph /  2.9km/h 10mph /  16.1km/h 68% 0.00in /  0mm 0 W/m2
01:29 23.4 °F /  -4.8 °C 14.4 °F /  -9.8 °C 30.15in /  1020.9hPa WNW 0.9mph /  1.4km/h 10mph /  16.1km/h 68% 0.00in /  0mm 0 W/m2
01:34 23.3 °F /  -4.8 °C 14.3 °F /  -9.8 °C 30.15in /  1020.9hPa WNW 0.8mph /  1.3km/h 10mph /  16.1km/h 68% 0.00in /  0mm 0 W/m2
01:39 23.2 °F /  -4.9 °C 14.4 °F /  -9.8 °C 30.15in /  1020.9hPa WNW 0.2mph /  0.3km/h 6mph /  9.7km/h 68.7% 0.00in /  0mm 0 W/m2
01:44 23.1 °F /  -4.9 °C 14.4 °F /  -9.8 °C 30.15in /  1020.9hPa Calm   6mph /  9.7km/h 69% 0.00in /  0mm 0 W/m2
01:49 23 °F /  -5 °C 14.3 °F /  -9.8 °C 30.16in /  1021.2hPa WNW 0.2mph /  0.3km/h 6mph /  9.7km/h 69% 0.00in /  0mm 0 W/m2
01:54 22.9 °F /  -5.1 °C 14.2 °F /  -9.9 °C 30.16in /  1021.2hPa WNW 0.5mph /  0.8km/h 6mph /  9.7km/h 69% 0.00in /  0mm 0 W/m2
01:59 22.8 °F /  -5.1 °C 14.1 °F /  -9.9 °C 30.16in /  1021.2hPa WNW 0.2mph /  0.3km/h 6mph /  9.7km/h 69% 0.00in /  0mm 0 W/m2
02:04 22.7 °F /  -5.2 °C 14.1 °F /  -9.9 °C 30.16in /  1021.2hPa WNW 0.3mph /  0.5km/h 6mph /  9.7km/h 69.1% 0.00in /  0mm 0 W/m2
02:09 22.6 °F /  -5.2 °C 14.3 °F /  -9.8 °C 30.16in /  1021.2hPa WNW 0.3mph /  0.5km/h 3mph /  4.8km/h 70% 0.00in /  0mm 0 W/m2
02:14 22.5 °F /  -5.3 °C 14.2 °F /  -9.9 °C 30.17in /  1021.6hPa WNW 0.2mph /  0.3km/h 4mph /  6.4km/h 70% 0.00in /  0mm 0 W/m2
02:19 22.5 °F /  -5.3 °C 14.2 °F /  -9.9 °C 30.17in /  1021.6hPa WNW 0.6mph /  1km/h 4mph /  6.4km/h 70% 0.00in /  0mm 0 W/m2
02:24 22.4 °F /  -5.3 °C 14.1 °F /  -9.9 °C 30.17in /  1021.6hPa Calm   4mph /  6.4km/h 70% 0.00in /  0mm 0 W/m2
02:29 22.2 °F /  -5.4 °C 14 °F /  -10 °C 30.17in /  1021.6hPa Calm   4mph /  6.4km/h 70.2% 0.00in /  0mm 0 W/m2
02:34 22.2 °F /  -5.4 °C 14.1 °F /  -9.9 °C 30.17in /  1021.6hPa WNW 0.5mph /  0.8km/h 4mph /  6.4km/h 70.8% 0.00in /  0mm 0 W/m2
02:39 22.1 °F /  -5.5 °C 14.1 °F /  -9.9 °C 30.17in /  1021.6hPa WNW 0.7mph /  1.1km/h 3mph /  4.8km/h 71% 0.00in /  0mm 0 W/m2
02:44 22 °F /  -5.6 °C 14 °F /  -10 °C 30.17in /  1021.6hPa WNW 2mph /  3.2km/h 7mph /  11.3km/h 71% 0.00in /  0mm 0 W/m2
02:49 21.9 °F /  -5.6 °C 14 °F /  -10 °C 30.18in /  1021.9hPa WNW 0.5mph /  0.8km/h 7mph /  11.3km/h 71% 0.00in /  0mm 0 W/m2
02:54 21.9 °F /  -5.6 °C 14.2 °F /  -9.9 °C 30.18in /  1021.9hPa WNW 0.1mph /  0.2km/h 7mph /  11.3km/h 71.7% 0.00in /  0mm 0 W/m2
02:59 21.8 °F /  -5.7 °C 14.2 °F /  -9.9 °C 30.18in /  1021.9hPa WNW 0.1mph /  0.2km/h 7mph /  11.3km/h 72% 0.00in /  0mm 0 W/m2
03:04 21.8 °F /  -5.7 °C 14.2 °F /  -9.9 °C 30.18in /  1021.9hPa Calm   7mph /  11.3km/h 72% 0.00in /  0mm 0 W/m2
03:09 21.8 °F /  -5.7 °C 14.2 °F /  -9.9 °C 30.18in /  1021.9hPa Calm     72% 0.00in /  0mm 0 W/m2
03:14 21.7 °F /  -5.7 °C 14.1 °F /  -9.9 °C 30.18in /  1021.9hPa Calm     72% 0.00in /  0mm 0 W/m2
03:19 21.6 °F /  -5.8 °C 14 °F /  -10 °C 30.18in /  1021.9hPa Calm     72% 0.00in /  0mm 0 W/m2
03:24 21.6 °F /  -5.8 °C 14.2 °F /  -9.9 °C 30.18in /  1021.9hPa Calm     72.9% 0.00in /  0mm 0 W/m2
03:29 21.5 °F /  -5.8 °C 14.2 °F /  -9.9 °C 30.18in /  1021.9hPa Calm     73% 0.00in /  0mm 0 W/m2
03:34 21.4 °F /  -5.9 °C 14.1 °F /  -9.9 °C 30.18in /  1021.9hPa Calm     73% 0.00in /  0mm 0 W/m2
03:39 21.3 °F /  -5.9 °C 14 °F /  -10 °C 30.18in /  1021.9hPa Calm   2mph /  3.2km/h 73% 0.00in /  0mm 0 W/m2
03:44 21.2 °F /  -6 °C 13.9 °F /  -10.1 °C 30.19in /  1022.2hPa Calm   2mph /  3.2km/h 73% 0.00in /  0mm 0 W/m2
03:49 21.1 °F /  -6.1 °C 13.9 °F /  -10.1 °C 30.19in /  1022.2hPa Calm   2mph /  3.2km/h 73.1% 0.00in /  0mm 0 W/m2
03:54 21 °F /  -6.1 °C 14.1 °F /  -9.9 °C 30.19in /  1022.2hPa Calm   2mph /  3.2km/h 74% 0.00in /  0mm 0 W/m2
03:59 20.9 °F /  -6.2 °C 14 °F /  -10 °C 30.19in /  1022.2hPa Calm   2mph /  3.2km/h 74% 0.00in /  0mm 0 W/m2
04:00 20.9 °F /  -6.2 °C 13.9 °F /  -10.1 °C 30.19in /  1022.2hPa Calm   2mph /  3.2km/h 74% 0.00in /  0mm 0 W/m2
04:09 20.7 °F /  -6.3 °C 13.8 °F /  -10.1 °C 30.20in /  1022.6hPa Calm     74% 0.00in /  0mm 0 W/m2
04:14 20.6 °F /  -6.3 °C 13.7 °F /  -10.2 °C 30.20in /  1022.6hPa WNW 0.1mph /  0.2km/h 2mph /  3.2km/h 74% 0.00in /  0mm 0 W/m2
04:19 20.6 °F /  -6.3 °C 13.9 °F /  -10.1 °C 30.20in /  1022.6hPa NW 0.6mph /  1km/h 4mph /  6.4km/h 74.8% 0.00in /  0mm 0 W/m2
04:24 20.5 °F /  -6.4 °C 13.6 °F /  -10.2 °C 30.20in /  1022.6hPa NW 1.4mph /  2.3km/h 4mph /  6.4km/h 74.1% 0.00in /  0mm 0 W/m2
04:29 20.5 °F /  -6.4 °C 13.3 °F /  -10.4 °C 30.20in /  1022.6hPa NW 1.2mph /  1.9km/h 5mph /  8km/h 73.3% 0.00in /  0mm 0 W/m2
04:34 20.5 °F /  -6.4 °C 13 °F /  -10.6 °C 30.20in /  1022.6hPa Calm   5mph /  8km/h 72.1% 0.00in /  0mm 0 W/m2
04:39 20.5 °F /  -6.4 °C 12.9 °F /  -10.6 °C 30.20in /  1022.6hPa NW 0.5mph /  0.8km/h 4mph /  6.4km/h 72% 0.00in /  0mm 0 W/m2
04:44 20.4 °F /  -6.4 °C 12.8 °F /  -10.7 °C 30.20in /  1022.6hPa Calm   4mph /  6.4km/h 72% 0.00in /  0mm 0 W/m2
04:49 20.4 °F /  -6.4 °C 12.8 °F /  -10.7 °C 30.21in /  1022.9hPa Calm   4mph /  6.4km/h 72% 0.00in /  0mm 0 W/m2
04:54 20.3 °F /  -6.5 °C 12.7 °F /  -10.7 °C 30.21in /  1022.9hPa Calm   4mph /  6.4km/h 72% 0.00in /  0mm 0 W/m2
04:59 20.1 °F /  -6.6 °C 12.6 °F /  -10.8 °C 30.21in /  1022.9hPa NW 1.8mph /  2.9km/h 12mph /  19.3km/h 72% 0.00in /  0mm 0 W/m2
05:04 20 °F /  -6.7 °C 12.1 °F /  -11.1 °C 30.21in /  1022.9hPa NW 1.5mph /  2.4km/h 13mph /  20.9km/h 71% 0.00in /  0mm 0 W/m2
05:09 20 °F /  -6.7 °C 11.8 °F /  -11.2 °C 30.21in /  1022.9hPa NNW 0.6mph /  1km/h 13mph /  20.9km/h 70% 0.00in /  0mm 0 W/m2
05:14 20 °F /  -6.7 °C 11.5 °F /  -11.4 °C 30.22in /  1023.2hPa NW 1.6mph /  2.6km/h 13mph /  20.9km/h 69.2% 0.00in /  0mm 0 W/m2
05:19 20 °F /  -6.7 °C 11.2 °F /  -11.6 °C 30.22in /  1023.2hPa NW 2mph /  3.2km/h 13mph /  20.9km/h 68.2% 0.00in /  0mm 0 W/m2
05:24 20 °F /  -6.7 °C 10.9 °F /  -11.7 °C 30.23in /  1023.6hPa NW 0.5mph /  0.8km/h 13mph /  20.9km/h 67.2% 0.00in /  0mm 0 W/m2
05:29 19.9 °F /  -6.7 °C 10.7 °F /  -11.8 °C 30.23in /  1023.6hPa NW 0.5mph /  0.8km/h 13mph /  20.9km/h 67% 0.00in /  0mm 0 W/m2
05:34 19.9 °F /  -6.7 °C 10.7 °F /  -11.8 °C 30.23in /  1023.6hPa NW 1.5mph /  2.4km/h 13mph /  20.9km/h 66.9% 0.00in /  0mm 0 W/m2
05:39 19.8 °F /  -6.8 °C 10.3 °F /  -12.1 °C 30.23in /  1023.6hPa NW 2.6mph /  4.2km/h 10mph /  16.1km/h 66% 0.00in /  0mm 0 W/m2
05:44 19.9 °F /  -6.7 °C 10.1 °F /  -12.2 °C 30.23in /  1023.6hPa NW 1mph /  1.6km/h 10mph /  16.1km/h 65.1% 0.00in /  0mm 0 W/m2
05:49 19.9 °F /  -6.7 °C 10.2 °F /  -12.1 °C 30.23in /  1023.6hPa NW 2.6mph /  4.2km/h 10mph /  16.1km/h 65.3% 0.00in /  0mm 0 W/m2
05:54 19.8 °F /  -6.8 °C 10 °F /  -12.2 °C 30.23in /  1023.6hPa NW 2.2mph /  3.5km/h 11mph /  17.7km/h 65% 0.00in /  0mm 0 W/m2
05:59 19.8 °F /  -6.8 °C 9.8 °F /  -12.3 °C 30.23in /  1023.6hPa NW 4.6mph /  7.4km/h 12mph /  19.3km/h 64.4% 0.00in /  0mm 0 W/m2
06:04 19.9 °F /  -6.7 °C 9.7 °F /  -12.4 °C 30.24in /  1023.9hPa NW 0.8mph /  1.3km/h 12mph /  19.3km/h 64% 0.00in /  0mm 0 W/m2
06:09 19.9 °F /  -6.7 °C 9.7 °F /  -12.4 °C 30.24in /  1023.9hPa NW 0.9mph /  1.4km/h 6mph /  9.7km/h 64% 0.00in /  0mm 0 W/m2
06:14 19.8 °F /  -6.8 °C 9.6 °F /  -12.4 °C 30.24in /  1023.9hPa NW 0.4mph /  0.6km/h 6mph /  9.7km/h 64% 0.00in /  0mm 0 W/m2
06:19 19.7 °F /  -6.8 °C 9.6 °F /  -12.4 °C 30.25in /  1024.3hPa NW 0.1mph /  0.2km/h 6mph /  9.7km/h 64% 0.00in /  0mm 0 W/m2
06:24 19.7 °F /  -6.8 °C 9.5 °F /  -12.5 °C 30.25in /  1024.3hPa NW 0.1mph /  0.2km/h 6mph /  9.7km/h 64% 0.00in /  0mm 0 W/m2
06:29 19.5 °F /  -6.9 °C 9.5 °F /  -12.5 °C 30.25in /  1024.3hPa Calm   6mph /  9.7km/h 64.4% 0.00in /  0mm 0 W/m2
06:34 19.4 °F /  -7 °C 9.6 °F /  -12.4 °C 30.25in /  1024.3hPa Calm   6mph /  9.7km/h 65% 0.00in /  0mm 0 W/m2
06:39 19.2 °F /  -7.1 °C 9.7 °F /  -12.4 °C 30.25in /  1024.3hPa NW 0.5mph /  0.8km/h 3mph /  4.8km/h 65.9% 0.00in /  0mm 0 W/m2
06:44 19.1 °F /  -7.2 °C 9.6 °F /  -12.4 °C 30.26in /  1024.6hPa NW 0.5mph /  0.8km/h 4mph /  6.4km/h 66.2% 0.00in /  0mm 0 W/m2
06:49 18.9 °F /  -7.3 °C 9.8 °F /  -12.3 °C 30.26in /  1024.6hPa NW 1.1mph /  1.8km/h 6mph /  9.7km/h 67% 0.00in /  0mm 0 W/m2
06:54 18.8 °F /  -7.3 °C 9.5 °F /  -12.5 °C 30.26in /  1024.6hPa NW 0.1mph /  0.2km/h 6mph /  9.7km/h 66.5% 0.00in /  0mm 0 W/m2
06:59 18.7 °F /  -7.4 °C 9.6 °F /  -12.4 °C 30.26in /  1024.6hPa Calm   6mph /  9.7km/h 67% 0.00in /  0mm 0 W/m2
07:04 18.6 °F /  -7.4 °C 9.4 °F /  -12.6 °C 30.26in /  1024.6hPa Calm   6mph /  9.7km/h 67% 0.00in /  0mm 0 W/m2
07:09 18.4 °F /  -7.6 °C 9.4 °F /  -12.6 °C 30.26in /  1024.6hPa Calm     67.3% 0.00in /  0mm 5 W/m2
07:14 18.3 °F /  -7.6 °C 9.5 °F /  -12.5 °C 30.26in /  1024.6hPa Calm     68% 0.00in /  0mm 7 W/m2
07:19 18.1 °F /  -7.7 °C 9.5 °F /  -12.5 °C 30.27in /  1024.9hPa Calm     68.3% 0.00in /  0mm 9 W/m2
07:24 18 °F /  -7.8 °C 9.7 °F /  -12.4 °C 30.27in /  1024.9hPa Calm     69.2% 0.00in /  0mm 11 W/m2
07:29 17.9 °F /  -7.8 °C 9.8 °F /  -12.3 °C 30.27in /  1024.9hPa Calm     70% 0.00in /  0mm 16 W/m2
07:34 17.9 °F /  -7.8 °C 9.8 °F /  -12.3 °C 30.27in /  1024.9hPa Calm     70% 0.00in /  0mm 30 W/m2
07:39 17.9 °F /  -7.8 °C 10.1 °F /  -12.2 °C 30.27in /  1024.9hPa Calm     71% 0.00in /  0mm 46 W/m2
07:44 18.1 °F /  -7.7 °C 10.3 °F /  -12.1 °C 30.27in /  1024.9hPa Calm     71% 0.00in /  0mm 46 W/m2
07:49 18.4 °F /  -7.6 °C 10.4 °F /  -12 °C 30.28in /  1025.3hPa NW 0.2mph /  0.3km/h 3mph /  4.8km/h 70.4% 0.00in /  0mm 33 W/m2
07:54 18.7 °F /  -7.4 °C 10.6 °F /  -11.9 °C 30.28in /  1025.3hPa WNW 1.5mph /  2.4km/h 9mph /  14.5km/h 70% 0.00in /  0mm 30 W/m2
07:59 19 °F /  -7.2 °C 10.6 °F /  -11.9 °C 30.28in /  1025.3hPa WNW 1.5mph /  2.4km/h 9mph /  14.5km/h 69.1% 0.00in /  0mm 53 W/m2
08:09 19.7 °F /  -6.8 °C 10.3 °F /  -12.1 °C 30.28in /  1025.3hPa WNW 2.6mph /  4.2km/h 7mph /  11.3km/h 66.5% 0.00in /  0mm 60 W/m2
08:14 19.9 °F /  -6.7 °C 10.2 °F /  -12.1 °C 30.28in /  1025.3hPa NW 1.4mph /  2.3km/h 9mph /  14.5km/h 65.2% 0.00in /  0mm 60 W/m2
08:19 20.2 °F /  -6.6 °C 10.2 °F /  -12.1 °C 30.28in /  1025.3hPa WNW 2.5mph /  4km/h 11mph /  17.7km/h 64.6% 0.00in /  0mm 60 W/m2
08:24 20.4 °F /  -6.4 °C 9.6 °F /  -12.4 °C 30.28in /  1025.3hPa WNW 4.7mph /  7.6km/h 11mph /  17.7km/h 62.5% 0.00in /  0mm 207 W/m2
08:29 20.6 °F /  -6.3 °C 9.7 °F /  -12.4 °C 30.28in /  1025.3hPa WNW 3.1mph /  5km/h 11mph /  17.7km/h 62% 0.00in /  0mm 218 W/m2
08:34 21.2 °F /  -6 °C 9.8 °F /  -12.3 °C 30.28in /  1025.3hPa WNW 4.2mph /  6.8km/h 11mph /  17.7km/h 60.9% 0.00in /  0mm 206 W/m2
08:39 21.8 °F /  -5.7 °C 9.9 °F /  -12.3 °C 30.28in /  1025.3hPa WNW 3.5mph /  5.6km/h 11mph /  17.7km/h 59.5% 0.00in /  0mm 241 W/m2
08:44 22.4 °F /  -5.3 °C 10.2 °F /  -12.1 °C 30.29in /  1025.6hPa WNW 4.1mph /  6.6km/h 11mph /  17.7km/h 58.8% 0.00in /  0mm 279 W/m2
08:49 23 °F /  -5 °C 10.2 °F /  -12.1 °C 30.29in /  1025.6hPa WNW 3.3mph /  5.3km/h 11mph /  17.7km/h 57.4% 0.00in /  0mm 292 W/m2
08:54 23.6 °F /  -4.7 °C 10.5 °F /  -11.9 °C 30.29in /  1025.6hPa West 1.3mph /  2.1km/h 11mph /  17.7km/h 56.7% 0.00in /  0mm 306 W/m2
08:59 24.2 °F /  -4.3 °C 10.7 °F /  -11.8 °C 30.29in /  1025.6hPa WNW 4.2mph /  6.8km/h 13mph /  20.9km/h 55.7% 0.00in /  0mm 316 W/m2
09:04 24.4 °F /  -4.2 °C 10.2 °F /  -12.1 °C 30.29in /  1025.6hPa WNW 4.3mph /  6.9km/h 13mph /  20.9km/h 54% 0.00in /  0mm 329 W/m2
09:09 24.7 °F /  -4.1 °C 10.2 °F /  -12.1 °C 30.29in /  1025.6hPa WNW 3.5mph /  5.6km/h 12mph /  19.3km/h 53.5% 0.00in /  0mm 339 W/m2
09:14 24.8 °F /  -4 °C 10.1 °F /  -12.2 °C 30.30in /  1026hPa WNW 3.6mph /  5.8km/h 12mph /  19.3km/h 53% 0.00in /  0mm 348 W/m2
09:19 25 °F /  -3.9 °C 10.1 °F /  -12.2 °C 30.30in /  1026hPa WNW 2.7mph /  4.3km/h 12mph /  19.3km/h 52.5% 0.00in /  0mm 357 W/m2
09:24 25.3 °F /  -3.7 °C 10.2 °F /  -12.1 °C 30.30in /  1026hPa WNW 5.2mph /  8.4km/h 12mph /  19.3km/h 52.2% 0.00in /  0mm 366 W/m2
09:29 25.5 °F /  -3.6 °C 9.8 °F /  -12.3 °C 30.30in /  1026hPa NW 3.1mph /  5km/h 12mph /  19.3km/h 50.6% 0.00in /  0mm 374 W/m2
09:34 25.6 °F /  -3.6 °C 9.2 °F /  -12.7 °C 30.30in /  1026hPa NW 4.2mph /  6.8km/h 12mph /  19.3km/h 49.3% 0.00in /  0mm 366 W/m2
09:39 25.4 °F /  -3.7 °C 8.1 °F /  -13.3 °C 30.30in /  1026hPa NW 8.2mph /  13.2km/h 19mph /  30.6km/h 47.4% 0.00in /  0mm 260 W/m2
09:44 24.7 °F /  -4.1 °C 7.3 °F /  -13.7 °C 30.31in /  1026.3hPa NW 6.9mph /  11.1km/h 19mph /  30.6km/h 46.7% 0.00in /  0mm 383 W/m2
09:49 24.3 °F /  -4.3 °C 6.6 °F /  -14.1 °C 30.31in /  1026.3hPa NW 6.9mph /  11.1km/h 19mph /  30.6km/h 46.1% 0.00in /  0mm 401 W/m2
09:54 24.1 °F /  -4.4 °C 6 °F /  -14.4 °C 30.31in /  1026.3hPa WNW 7.9mph /  12.7km/h 19mph /  30.6km/h 45.3% 0.00in /  0mm 388 W/m2
09:59 23.9 °F /  -4.5 °C 5.9 °F /  -14.5 °C 30.31in /  1026.3hPa WNW 3.5mph /  5.6km/h 19mph /  30.6km/h 45.4% 0.00in /  0mm 299 W/m2
10:04 23.9 °F /  -4.5 °C 5.9 °F /  -14.5 °C 30.31in /  1026.3hPa WNW 6.3mph /  10.1km/h 19mph /  30.6km/h 45.6% 0.00in /  0mm 227 W/m2
10:09 23.9 °F /  -4.5 °C 6.2 °F /  -14.3 °C 30.31in /  1026.3hPa NW 4.2mph /  6.8km/h 13mph /  20.9km/h 46% 0.00in /  0mm 290 W/m2
10:14 24.2 °F /  -4.3 °C 6.7 °F /  -14.1 °C 30.31in /  1026.3hPa NW 5.2mph /  8.4km/h 13mph /  20.9km/h 46.6% 0.00in /  0mm 457 W/m2
10:19 24.5 °F /  -4.2 °C 5.7 °F /  -14.6 °C 30.31in /  1026.3hPa NW 6.8mph /  10.9km/h 15mph /  24.1km/h 43.9% 0.00in /  0mm 457 W/m2
10:24 24.7 °F /  -4.1 °C 5.4 °F /  -14.8 °C 30.31in /  1026.3hPa NW 3.9mph /  6.3km/h 15mph /  24.1km/h 43% 0.00in /  0mm 424 W/m2
10:29 25 °F /  -3.9 °C 5.8 °F /  -14.6 °C 30.31in /  1026.3hPa NW 5.4mph /  8.7km/h 15mph /  24.1km/h 43.2% 0.00in /  0mm 455 W/m2
10:34 25.4 °F /  -3.7 °C 6 °F /  -14.4 °C 30.31in /  1026.3hPa WNW 4.6mph /  7.4km/h 15mph /  24.1km/h 43% 0.00in /  0mm 501 W/m2
10:39 25.9 °F /  -3.4 °C 6.4 °F /  -14.2 °C 30.31in /  1026.3hPa WNW 3.6mph /  5.8km/h 15mph /  24.1km/h 42.8% 0.00in /  0mm 492 W/m2
10:44 26.3 °F /  -3.2 °C 6.3 °F /  -14.3 °C 30.30in /  1026hPa WNW 7mph /  11.3km/h 15mph /  24.1km/h 42% 0.00in /  0mm 519 W/m2
10:49 26.6 °F /  -3 °C 6.3 °F /  -14.3 °C 30.31in /  1026.3hPa NW 6.3mph /  10.1km/h 16mph /  25.7km/h 41.4% 0.00in /  0mm 526 W/m2
10:54 27.1 °F /  -2.7 °C 6.2 °F /  -14.3 °C 30.31in /  1026.3hPa NW 4.1mph /  6.6km/h 16mph /  25.7km/h 40.5% 0.00in /  0mm 531 W/m2
10:59 27.4 °F /  -2.6 °C 6.4 °F /  -14.2 °C 30.30in /  1026hPa WNW 5.9mph /  9.5km/h 16mph /  25.7km/h 40.3% 0.00in /  0mm 538 W/m2
11:04 27.5 °F /  -2.5 °C 6.5 °F /  -14.2 °C 30.30in /  1026hPa WNW 4mph /  6.4km/h 16mph /  25.7km/h 40.3% 0.00in /  0mm 538 W/m2
11:09 27.6 °F /  -2.4 °C 6.7 °F /  -14.1 °C 30.29in /  1025.6hPa WNW 4.8mph /  7.7km/h 13mph /  20.9km/h 40.4% 0.00in /  0mm 378 W/m2
11:14 27.7 °F /  -2.4 °C 6.2 °F /  -14.3 °C 30.30in /  1026hPa NW 3.3mph /  5.3km/h 13mph /  20.9km/h 39.3% 0.00in /  0mm 181 W/m2
11:19 27.7 °F /  -2.4 °C 5.9 °F /  -14.5 °C 30.30in /  1026hPa NW 7.6mph /  12.2km/h 19mph /  30.6km/h 38.9% 0.00in /  0mm 207 W/m2
11:24 27.3 °F /  -2.6 °C 4.9 °F /  -15.1 °C 30.30in /  1026hPa NW 9.4mph /  15.1km/h 19mph /  30.6km/h 37.6% 0.00in /  0mm 264 W/m2
11:29 26.8 °F /  -2.9 °C 3.9 °F /  -15.6 °C 30.29in /  1025.6hPa NW 9.2mph /  14.8km/h 19mph /  30.6km/h 36.7% 0.00in /  0mm 330 W/m2
11:34 26.4 °F /  -3.1 °C 3.5 °F /  -15.8 °C 30.29in /  1025.6hPa NW 10.5mph /  16.9km/h 19mph /  30.6km/h 36.8% 0.00in /  0mm 455 W/m2
11:39 26.1 °F /  -3.3 °C 3.5 °F /  -15.8 °C 30.29in /  1025.6hPa NW 10mph /  16.1km/h 19mph /  30.6km/h 37.2% 0.00in /  0mm 364 W/m2
11:44 26 °F /  -3.3 °C 3.9 °F /  -15.6 °C 30.29in /  1025.6hPa NW 5mph /  8km/h 19mph /  30.6km/h 37.9% 0.00in /  0mm 257 W/m2
11:49 26.2 °F /  -3.2 °C 4.3 °F /  -15.4 °C 30.28in /  1025.3hPa NW 10mph /  16.1km/h 21mph /  33.8km/h 38.4% 0.00in /  0mm 267 W/m2
11:54 26.2 °F /  -3.2 °C 3.5 °F /  -15.8 °C 30.28in /  1025.3hPa NW 6.2mph /  10km/h 21mph /  33.8km/h 37% 0.00in /  0mm 102 W/m2
11:59 26.3 °F /  -3.2 °C 4 °F /  -15.6 °C 30.28in /  1025.3hPa NW 6.7mph /  10.8km/h 21mph /  33.8km/h 37.6% 0.00in /  0mm 188 W/m2
12:00 26.4 °F /  -3.1 °C 4.3 °F /  -15.4 °C 30.27in /  1024.9hPa WNW 7.5mph /  12.1km/h 21mph /  33.8km/h 38% 0.00in /  0mm 165 W/m2
12:09 26.5 °F /  -3.1 °C 3.6 °F /  -15.8 °C 30.28in /  1025.3hPa NW 9.9mph /  15.9km/h 18mph /  29km/h 36.7% 0.00in /  0mm 149 W/m2
12:14 26.4 °F /  -3.1 °C 3 °F /  -16.1 °C 30.28in /  1025.3hPa WNW 11.6mph /  18.7km/h 18mph /  29km/h 35.8% 0.00in /  0mm 179 W/m2
12:19 26.2 °F /  -3.2 °C 2.7 °F /  -16.3 °C 30.27in /  1024.9hPa WNW 9.5mph /  15.3km/h 20mph /  32.2km/h 35.7% 0.00in /  0mm 104 W/m2
12:24 26.2 °F /  -3.2 °C 2.9 °F /  -16.2 °C 30.27in /  1024.9hPa WNW 8.3mph /  13.4km/h 20mph /  32.2km/h 36% 0.00in /  0mm 167 W/m2
12:29 26.5 °F /  -3.1 °C 3.5 °F /  -15.8 °C 30.27in /  1024.9hPa NW 6.8mph /  10.9km/h 20mph /  32.2km/h 36.7% 0.00in /  0mm 204 W/m2
12:34 26.9 °F /  -2.8 °C 4.2 °F /  -15.4 °C 30.27in /  1024.9hPa WNW 6.4mph /  10.3km/h 20mph /  32.2km/h 37.3% 0.00in /  0mm 102 W/m2
12:39 27.1 °F /  -2.7 °C 3.7 °F /  -15.7 °C 30.27in /  1024.9hPa WNW 9.4mph /  15.1km/h 19mph /  30.6km/h 36% 0.00in /  0mm 146 W/m2
12:44 27 °F /  -2.8 °C 2.9 °F /  -16.2 °C 30.27in /  1024.9hPa NW 9.6mph /  15.4km/h 19mph /  30.6km/h 34.8% 0.00in /  0mm 146 W/m2
12:49 26.9 °F /  -2.8 °C 2.7 °F /  -16.3 °C 30.27in /  1024.9hPa NW 8.9mph /  14.3km/h 19mph /  30.6km/h 34.6% 0.00in /  0mm 239 W/m2
12:54 26.8 °F /  -2.9 °C 2.8 °F /  -16.2 °C 30.27in /  1024.9hPa WNW 8.1mph /  13km/h 19mph /  30.6km/h 35% 0.00in /  0mm 260 W/m2
12:59 26.8 °F /  -2.9 °C 2.8 °F /  -16.2 °C 30.27in /  1024.9hPa NW 9.5mph /  15.3km/h 20mph /  32.2km/h 35% 0.00in /  0mm 221 W/m2
13:04 26.5 °F /  -3.1 °C 2.4 °F /  -16.4 °C 30.27in /  1024.9hPa NW 9.5mph /  15.3km/h 20mph /  32.2km/h 34.8% 0.00in /  0mm 174 W/m2
13:09 26.3 °F /  -3.2 °C 2.5 °F /  -16.4 °C 30.27in /  1024.9hPa WNW 6.5mph /  10.5km/h 18mph /  29km/h 35.3% 0.00in /  0mm 185 W/m2
13:14 26.3 °F /  -3.2 °C 2.6 °F /  -16.3 °C 30.27in /  1024.9hPa NW 6.5mph /  10.5km/h 18mph /  29km/h 35.3% 0.00in /  0mm 104 W/m2
13:19 26.5 °F /  -3.1 °C 3 °F /  -16.1 °C 30.27in /  1024.9hPa NW 8.4mph /  13.5km/h 21mph /  33.8km/h 35.8% 0.00in /  0mm 116 W/m2
13:24 26.6 °F /  -3 °C 2.3 °F /  -16.5 °C 30.27in /  1024.9hPa WNW 12.3mph /  19.8km/h 22mph /  35.4km/h 34.4% 0.00in /  0mm 163 W/m2
13:29 26.4 °F /  -3.1 °C 2.2 °F /  -16.6 °C 30.27in /  1024.9hPa NW 7.6mph /  12.2km/h 22mph /  35.4km/h 34.4% 0.00in /  0mm 202 W/m2
13:34 26.5 °F /  -3.1 °C 2.5 °F /  -16.4 °C 30.27in /  1024.9hPa NW 8.7mph /  14km/h 22mph /  35.4km/h 35% 0.00in /  0mm 179 W/m2
13:39 26.4 °F /  -3.1 °C 2.5 °F /  -16.4 °C 30.27in /  1024.9hPa NNW 3.8mph /  6.1km/h 16mph /  25.7km/h 35% 0.00in /  0mm 40 W/m2
13:44 26.6 °F /  -3 °C 2.5 °F /  -16.4 °C 30.27in /  1024.9hPa NW 8.9mph /  14.3km/h 16mph /  25.7km/h 34.8% 0.00in /  0mm 40 W/m2
13:49 26.6 °F /  -3 °C 1.8 °F /  -16.8 °C 30.27in /  1024.9hPa WNW 12.7mph /  20.4km/h 20mph /  32.2km/h 33.7% 0.00in /  0mm 174 W/m2
13:54 26.4 °F /  -3.1 °C 1.4 °F /  -17 °C 30.27in /  1024.9hPa NW 8.9mph /  14.3km/h 20mph /  32.2km/h 33.2% 0.00in /  0mm 202 W/m2
13:59 26.4 °F /  -3.1 °C 1.8 °F /  -16.8 °C 30.27in /  1024.9hPa NW 9.3mph /  15km/h 20mph /  32.2km/h 34% 0.00in /  0mm 287 W/m2
14:04 26.3 °F /  -3.2 °C 1.3 °F /  -17.1 °C 30.27in /  1024.9hPa NW 7.1mph /  11.4km/h 24mph /  38.6km/h 33.3% 0.00in /  0mm 281 W/m2
14:09 26.2 °F /  -3.2 °C 1.4 °F /  -17 °C 30.27in /  1024.9hPa NW 7mph /  11.3km/h 24mph /  38.6km/h 33.6% 0.00in /  0mm 207 W/m2
14:14 26.3 °F /  -3.2 °C 1.8 °F /  -16.8 °C 30.27in /  1024.9hPa NW 6.4mph /  10.3km/h 24mph /  38.6km/h 34% 0.00in /  0mm 399 W/m2
14:19 26.5 °F /  -3.1 °C 2.5 °F /  -16.4 °C 30.28in /  1025.3hPa NNW 6.7mph /  10.8km/h 24mph /  38.6km/h 35% 0.00in /  0mm 366 W/m2
14:24 26.4 °F /  -3.1 °C 2 °F /  -16.7 °C 30.28in /  1025.3hPa NW 11.7mph /  18.8km/h 24mph /  38.6km/h 34.1% 0.00in /  0mm 223 W/m2
14:29 26.2 °F /  -3.2 °C 1.2 °F /  -17.1 °C 30.28in /  1025.3hPa NW 13.3mph /  21.4km/h 24mph /  38.6km/h 33.2% 0.00in /  0mm 141 W/m2
14:34 25.9 °F /  -3.4 °C 1.3 °F /  -17.1 °C 30.28in /  1025.3hPa NW 10.1mph /  16.3km/h 24mph /  38.6km/h 33.8% 0.00in /  0mm 130 W/m2
14:39 25.7 °F /  -3.5 °C 1.2 °F /  -17.1 °C 30.28in /  1025.3hPa NW 6.5mph /  10.5km/h 19mph /  30.6km/h 34% 0.00in /  0mm 84 W/m2
14:44 25.5 °F /  -3.6 °C 1.4 °F /  -17 °C 30.28in /  1025.3hPa WNW 7.7mph /  12.4km/h 19mph /  30.6km/h 34.5% 0.00in /  0mm 142 W/m2
14:49 25.6 °F /  -3.6 °C 1.4 °F /  -17 °C 30.28in /  1025.3hPa WNW 10.2mph /  16.4km/h 19mph /  30.6km/h 34.5% 0.00in /  0mm 214 W/m2
14:54 25.5 °F /  -3.6 °C 1.6 °F /  -16.9 °C 30.28in /  1025.3hPa WNW 8.1mph /  13km/h 19mph /  30.6km/h 34.9% 0.00in /  0mm 257 W/m2
14:59 25.4 °F /  -3.7 °C 1.8 °F /  -16.8 °C 30.30in /  1026hPa NW 10mph /  16.1km/h 21mph /  33.8km/h 35.3% 0.00in /  0mm 239 W/m2
15:04 25.4 °F /  -3.7 °C 1.8 °F /  -16.8 °C 30.29in /  1025.6hPa NW 6.4mph /  10.3km/h 21mph /  33.8km/h 35.3% 0.00in /  0mm 32 W/m2
15:09 25.3 °F /  -3.7 °C 1.5 °F /  -16.9 °C 30.30in /  1026hPa NW 10.9mph /  17.5km/h 22mph /  35.4km/h 35.1% 0.00in /  0mm 30 W/m2
15:14 25.2 °F /  -3.8 °C 1.5 °F /  -16.9 °C 30.29in /  1025.6hPa WNW 8.6mph /  13.8km/h 22mph /  35.4km/h 35.2% 0.00in /  0mm 30 W/m2
15:19 25.1 °F /  -3.8 °C 1.9 °F /  -16.7 °C 30.30in /  1026hPa NW 7.5mph /  12.1km/h 22mph /  35.4km/h 36% 0.00in /  0mm 30 W/m2
15:24 25.1 °F /  -3.8 °C 2 °F /  -16.7 °C 30.30in /  1026hPa WNW 7.4mph /  11.9km/h 22mph /  35.4km/h 36.2% 0.00in /  0mm 28 W/m2
15:29 25 °F /  -3.9 °C 2.4 °F /  -16.4 °C 30.30in /  1026hPa NW 5.8mph /  9.3km/h 22mph /  35.4km/h 37% 0.00in /  0mm 26 W/m2
15:34 24.9 °F /  -3.9 °C 2.4 °F /  -16.4 °C 30.31in /  1026.3hPa NW 8.1mph /  13km/h 22mph /  35.4km/h 37% 0.00in /  0mm 26 W/m2
15:39 24.8 °F /  -4 °C 2.2 °F /  -16.6 °C 30.31in /  1026.3hPa NW 7.7mph /  12.4km/h 16mph /  25.7km/h 37% 0.00in /  0mm 25 W/m2
15:44 24.7 °F /  -4.1 °C 2.2 °F /  -16.6 °C 30.32in /  1026.6hPa WNW 7.2mph /  11.6km/h 17mph /  27.4km/h 37% 0.00in /  0mm 25 W/m2
15:49 24.6 °F /  -4.1 °C 2.1 °F /  -16.6 °C 30.31in /  1026.3hPa NNW 6.3mph /  10.1km/h 17mph /  27.4km/h 37% 0.00in /  0mm 23 W/m2
15:54 24.5 °F /  -4.2 °C 2 °F /  -16.7 °C 30.31in /  1026.3hPa NW 4.9mph /  7.9km/h 17mph /  27.4km/h 37.2% 0.00in /  0mm 23 W/m2
15:59 24.3 °F /  -4.3 °C 2.1 °F /  -16.6 °C 30.31in /  1026.3hPa NW 3.3mph /  5.3km/h 17mph /  27.4km/h 37.5% 0.00in /  0mm 21 W/m2
16:00 24.3 °F /  -4.3 °C 2.4 °F /  -16.4 °C 30.31in /  1026.3hPa NW 1mph /  1.6km/h 17mph /  27.4km/h 38% 0.00in /  0mm 19 W/m2
16:09 24.1 °F /  -4.4 °C 2.5 °F /  -16.4 °C 30.32in /  1026.6hPa NNW 3.7mph /  6km/h 13mph /  20.9km/h 38.5% 0.00in /  0mm 19 W/m2
16:13 24 °F /  -4.4 °C 2.1 °F /  -16.6 °C 30.32in /  1026.6hPa NW 5mph /  8km/h 13mph /  20.9km/h 38% 0.00in /  0mm 18 W/m2
16:19 23.8 °F /  -4.6 °C 2.4 °F /  -16.4 °C 30.32in /  1026.6hPa NW 4.1mph /  6.6km/h 13mph /  20.9km/h 38.9% 0.00in /  0mm 18 W/m2
16:24 23.6 °F /  -4.7 °C 2.1 °F /  -16.6 °C 30.32in /  1026.6hPa NW 8.6mph /  13.8km/h 18mph /  29km/h 38.6% 0.00in /  0mm 16 W/m2
16:29 23.5 °F /  -4.7 °C 2 °F /  -16.7 °C 30.32in /  1026.6hPa NW 5.7mph /  9.2km/h 18mph /  29km/h 38.5% 0.00in /  0mm 14 W/m2
16:34 23.5 °F /  -4.7 °C 2.3 °F /  -16.5 °C 30.32in /  1026.6hPa NW 3.1mph /  5km/h 18mph /  29km/h 39.2% 0.00in /  0mm 12 W/m2
16:39 23.3 °F /  -4.8 °C 2.3 °F /  -16.5 °C 30.33in /  1027hPa WNW 6.3mph /  10.1km/h 14mph /  22.5km/h 39.5% 0.00in /  0mm 11 W/m2
16:44 23.2 °F /  -4.9 °C 1.9 °F /  -16.7 °C 30.33in /  1027hPa NW 5.7mph /  9.2km/h 14mph /  22.5km/h 39% 0.00in /  0mm 9 W/m2
16:49 23 °F /  -5 °C 1.8 °F /  -16.8 °C 30.33in /  1027hPa WNW 3mph /  4.8km/h 14mph /  22.5km/h 39.1% 0.00in /  0mm 7 W/m2
16:54 22.9 °F /  -5.1 °C 2.2 °F /  -16.6 °C 30.34in /  1027.3hPa NW 3.6mph /  5.8km/h 14mph /  22.5km/h 40% 0.00in /  0mm 5 W/m2
16:59 22.8 °F /  -5.1 °C 2.1 °F /  -16.6 °C 30.34in /  1027.3hPa WNW 5.1mph /  8.2km/h 14mph /  22.5km/h 40% 0.00in /  0mm 0 W/m2
17:04 22.6 °F /  -5.2 °C 1.9 °F /  -16.7 °C 30.34in /  1027.3hPa NW 5.1mph /  8.2km/h 14mph /  22.5km/h 40% 0.00in /  0mm 0 W/m2
17:09 22.4 °F /  -5.3 °C 2.3 °F /  -16.5 °C 30.34in /  1027.3hPa NW 6.1mph /  9.8km/h 15mph /  24.1km/h 41% 0.00in /  0mm 0 W/m2
17:14 22.3 °F /  -5.4 °C 2.1 °F /  -16.6 °C 30.34in /  1027.3hPa NW 6.3mph /  10.1km/h 15mph /  24.1km/h 40.8% 0.00in /  0mm 0 W/m2
17:19 22.1 °F /  -5.5 °C 2 °F /  -16.7 °C 30.34in /  1027.3hPa NW 3.9mph /  6.3km/h 15mph /  24.1km/h 41% 0.00in /  0mm 0 W/m2
17:24 22 °F /  -5.6 °C 1.9 °F /  -16.7 °C 30.35in /  1027.7hPa NW 5.5mph /  8.9km/h 15mph /  24.1km/h 41% 0.00in /  0mm 0 W/m2
17:29 21.9 °F /  -5.6 °C 2.2 °F /  -16.6 °C 30.35in /  1027.7hPa NW 3.6mph /  5.8km/h 15mph /  24.1km/h 41.6% 0.00in /  0mm 0 W/m2
17:34 21.8 °F /  -5.7 °C 2.3 °F /  -16.5 °C 30.36in /  1028hPa NW 2.2mph /  3.5km/h 15mph /  24.1km/h 42% 0.00in /  0mm 0 W/m2
17:39 21.7 °F /  -5.7 °C 2.4 °F /  -16.4 °C 30.36in /  1028hPa NNW 2.6mph /  4.2km/h 11mph /  17.7km/h 42.5% 0.00in /  0mm 0 W/m2
17:44 21.6 °F /  -5.8 °C 2.6 °F /  -16.3 °C 30.37in /  1028.3hPa NW 3.5mph /  5.6km/h 12mph /  19.3km/h 43% 0.00in /  0mm 0 W/m2
17:49 21.5 °F /  -5.8 °C 2.5 °F /  -16.4 °C 30.37in /  1028.3hPa NW 3.4mph /  5.5km/h 12mph /  19.3km/h 43% 0.00in /  0mm 0 W/m2
17:54 21.4 °F /  -5.9 °C 2.4 °F /  -16.4 °C 30.38in /  1028.7hPa NW 2.9mph /  4.7km/h 12mph /  19.3km/h 43% 0.00in /  0mm 0 W/m2
17:59 21.3 °F /  -5.9 °C 2.5 °F /  -16.4 °C 30.38in /  1028.7hPa NW 3.2mph /  5.1km/h 12mph /  19.3km/h 43.5% 0.00in /  0mm 0 W/m2
18:04 21.3 °F /  -5.9 °C 2.8 °F /  -16.2 °C 30.38in /  1028.7hPa WNW 3.6mph /  5.8km/h 12mph /  19.3km/h 44% 0.00in /  0mm 0 W/m2
18:09 21.2 °F /  -6 °C 2.7 °F /  -16.3 °C 30.38in /  1028.7hPa WNW 1.1mph /  1.8km/h 9mph /  14.5km/h 44% 0.00in /  0mm 0 W/m2
18:14 21.1 °F /  -6.1 °C 2.6 °F /  -16.3 °C 30.38in /  1028.7hPa WNW 0.2mph /  0.3km/h 9mph /  14.5km/h 44% 0.00in /  0mm 0 W/m2
18:19 20.9 °F /  -6.2 °C 2.6 °F /  -16.3 °C 30.39in /  1029hPa Calm   9mph /  14.5km/h 44.3% 0.00in /  0mm 0 W/m2
18:24 20.8 °F /  -6.2 °C 3 °F /  -16.1 °C 30.39in /  1029hPa WNW 0.1mph /  0.2km/h 9mph /  14.5km/h 45.4% 0.00in /  0mm 0 W/m2
18:29 20.7 °F /  -6.3 °C 3.1 °F /  -16.1 °C 30.39in /  1029hPa WNW 0.1mph /  0.2km/h 9mph /  14.5km/h 45.8% 0.00in /  0mm 0 W/m2
18:34 20.5 °F /  -6.4 °C 3 °F /  -16.1 °C 30.39in /  1029hPa Calm   9mph /  14.5km/h 46% 0.00in /  0mm 0 W/m2
18:39 20.3 °F /  -6.5 °C 2.9 °F /  -16.2 °C 30.40in /  1029.3hPa Calm     46% 0.00in /  0mm 0 W/m2
18:44 20.2 °F /  -6.6 °C 2.9 °F /  -16.2 °C 30.40in /  1029.3hPa WNW 0.2mph /  0.3km/h 1mph /  1.6km/h 46.4% 0.00in /  0mm 0 W/m2
18:49 20 °F /  -6.7 °C 3 °F /  -16.1 °C 30.40in /  1029.3hPa WNW 0.1mph /  0.2km/h 1mph /  1.6km/h 47% 0.00in /  0mm 0 W/m2
18:54 19.8 °F /  -6.8 °C 3.2 °F /  -16 °C 30.40in /  1029.3hPa Calm   1mph /  1.6km/h 47.8% 0.00in /  0mm 0 W/m2
18:59 19.6 °F /  -6.9 °C 3.1 °F /  -16.1 °C 30.40in /  1029.3hPa WNW 0.5mph /  0.8km/h 4mph /  6.4km/h 48% 0.00in /  0mm 0 W/m2
19:04 19.5 °F /  -6.9 °C 3.4 °F /  -15.9 °C 30.41in /  1029.7hPa WNW 0.4mph /  0.6km/h 6mph /  9.7km/h 48.9% 0.00in /  0mm 0 W/m2
19:09 19.3 °F /  -7.1 °C 3.3 °F /  -15.9 °C 30.41in /  1029.7hPa WNW 0.2mph /  0.3km/h 6mph /  9.7km/h 49% 0.00in /  0mm 0 W/m2
19:14 19.2 °F /  -7.1 °C 3.4 °F /  -15.9 °C 30.41in /  1029.7hPa WNW 2.6mph /  4.2km/h 6mph /  9.7km/h 49.4% 0.00in /  0mm 0 W/m2
19:19 19.1 °F /  -7.2 °C 3.4 °F /  -15.9 °C 30.41in /  1029.7hPa WNW 1.4mph /  2.3km/h 6mph /  9.7km/h 49.7% 0.00in /  0mm 0 W/m2
19:24 19.1 °F /  -7.2 °C 3.5 °F /  -15.8 °C 30.41in /  1029.7hPa WNW 3mph /  4.8km/h 9mph /  14.5km/h 50% 0.00in /  0mm 0 W/m2
19:29 19.1 °F /  -7.2 °C 3.5 °F /  -15.8 °C 30.42in /  1030hPa WNW 1.3mph /  2.1km/h 9mph /  14.5km/h 50% 0.00in /  0mm 0 W/m2
19:34 19.1 °F /  -7.2 °C 3.5 °F /  -15.8 °C 30.42in /  1030hPa WNW 1.2mph /  1.9km/h 9mph /  14.5km/h 50% 0.00in /  0mm 0 W/m2
19:39 19 °F /  -7.2 °C 3.4 °F /  -15.9 °C 30.42in /  1030hPa WNW 1.5mph /  2.4km/h 7mph /  11.3km/h 50% 0.00in /  0mm 0 W/m2
19:44 19 °F /  -7.2 °C 3.3 °F /  -15.9 °C 30.42in /  1030hPa WNW 1.3mph /  2.1km/h 7mph /  11.3km/h 49.7% 0.00in /  0mm 0 W/m2
19:49 19 °F /  -7.2 °C 3.4 °F /  -15.9 °C 30.42in /  1030hPa NW 0.6mph /  1km/h 7mph /  11.3km/h 50% 0.00in /  0mm 0 W/m2
19:54 18.9 °F /  -7.3 °C 3.3 °F /  -15.9 °C 30.42in /  1030hPa NW 0.9mph /  1.4km/h 7mph /  11.3km/h 50% 0.00in /  0mm 0 W/m2
19:59 18.8 °F /  -7.3 °C 3.3 °F /  -15.9 °C 30.42in /  1030hPa NW 0.5mph /  0.8km/h 7mph /  11.3km/h 50% 0.00in /  0mm 0 W/m2
20:09 18.6 °F /  -7.4 °C 3.2 °F /  -16 °C 30.43in /  1030.4hPa Calm     50.3% 0.00in /  0mm 0 W/m2
20:14 18.5 °F /  -7.5 °C 3.4 °F /  -15.9 °C 30.43in /  1030.4hPa Calm   1mph /  1.6km/h 51% 0.00in /  0mm 0 W/m2
20:19 18.4 °F /  -7.6 °C 3.3 °F /  -15.9 °C 30.43in /  1030.4hPa Calm   1mph /  1.6km/h 51% 0.00in /  0mm 0 W/m2
20:24 18.3 °F /  -7.6 °C 3.5 °F /  -15.8 °C 30.43in /  1030.4hPa Calm   1mph /  1.6km/h 51.8% 0.00in /  0mm 0 W/m2
20:29 18.1 °F /  -7.7 °C 3.5 °F /  -15.8 °C 30.43in /  1030.4hPa Calm   1mph /  1.6km/h 52% 0.00in /  0mm 0 W/m2
20:34 18 °F /  -7.8 °C 3.7 °F /  -15.7 °C 30.43in /  1030.4hPa Calm   1mph /  1.6km/h 52.8% 0.00in /  0mm 0 W/m2
20:39 17.8 °F /  -7.9 °C 3.6 °F /  -15.8 °C 30.43in /  1030.4hPa Calm     53% 0.00in /  0mm 0 W/m2
20:44 17.6 °F /  -8 °C 3.5 °F /  -15.8 °C 30.43in /  1030.4hPa NW 0.1mph /  0.2km/h 2mph /  3.2km/h 53.3% 0.00in /  0mm 0 W/m2
20:49 17.4 °F /  -8.1 °C 3.8 °F /  -15.7 °C 30.44in /  1030.7hPa WNW 1.8mph /  2.9km/h 9mph /  14.5km/h 54.5% 0.00in /  0mm 0 W/m2
20:54 17.2 °F /  -8.2 °C 3.8 °F /  -15.7 °C 30.44in /  1030.7hPa WNW 1.5mph /  2.4km/h 9mph /  14.5km/h 55% 0.00in /  0mm 0 W/m2
20:59 17.1 °F /  -8.3 °C 3.7 °F /  -15.7 °C 30.44in /  1030.7hPa WNW 2.2mph /  3.5km/h 9mph /  14.5km/h 54.8% 0.00in /  0mm 0 W/m2
21:04 17.1 °F /  -8.3 °C 3.4 °F /  -15.9 °C 30.44in /  1030.7hPa WNW 0.4mph /  0.6km/h 9mph /  14.5km/h 54.1% 0.00in /  0mm 0 W/m2
21:09 17.2 °F /  -8.2 °C 3.4 °F /  -15.9 °C 30.44in /  1030.7hPa WNW 0.3mph /  0.5km/h 4mph /  6.4km/h 54% 0.00in /  0mm 0 W/m2
21:14 17.2 °F /  -8.2 °C 3.4 °F /  -15.9 °C 30.44in /  1030.7hPa WNW 0.3mph /  0.5km/h 4mph /  6.4km/h 54% 0.00in /  0mm 0 W/m2
21:19 17.2 °F /  -8.2 °C 3.4 °F /  -15.9 °C 30.44in /  1030.7hPa WNW 0.4mph /  0.6km/h 6mph /  9.7km/h 54% 0.00in /  0mm 0 W/m2
21:24 17.1 °F /  -8.3 °C 3.3 °F /  -15.9 °C 30.43in /  1030.4hPa Calm   6mph /  9.7km/h 54% 0.00in /  0mm 0 W/m2
21:29 17.1 °F /  -8.3 °C 3.3 °F /  -15.9 °C 30.43in /  1030.4hPa Calm   6mph /  9.7km/h 54% 0.00in /  0mm 0 W/m2
21:34 17 °F /  -8.3 °C 3.4 °F /  -15.9 °C 30.43in /  1030.4hPa Calm   6mph /  9.7km/h 54.5% 0.00in /  0mm 0 W/m2
21:39 16.8 °F /  -8.4 °C 3.5 °F /  -15.8 °C 30.44in /  1030.7hPa Calm   1mph /  1.6km/h 55% 0.00in /  0mm 0 W/m2
21:44 16.7 °F /  -8.5 °C 3.4 °F /  -15.9 °C 30.44in /  1030.7hPa WNW 0.1mph /  0.2km/h 2mph /  3.2km/h 55% 0.00in /  0mm 0 W/m2
21:49 16.6 °F /  -8.6 °C 3.3 °F /  -15.9 °C 30.44in /  1030.7hPa WNW 0.1mph /  0.2km/h 2mph /  3.2km/h 55% 0.00in /  0mm 0 W/m2
21:54 16.6 °F /  -8.6 °C 3.3 °F /  -15.9 °C 30.44in /  1030.7hPa WNW 0.2mph /  0.3km/h 4mph /  6.4km/h 55% 0.00in /  0mm 0 W/m2
21:59 16.5 °F /  -8.6 °C 3.2 °F /  -16 °C 30.44in /  1030.7hPa WNW 0.1mph /  0.2km/h 4mph /  6.4km/h 55% 0.00in /  0mm 0 W/m2
22:04 16.4 °F /  -8.7 °C 3.2 °F /  -16 °C 30.44in /  1030.7hPa WNW 1.4mph /  2.3km/h 7mph /  11.3km/h 55.3% 0.00in /  0mm 0 W/m2
22:09 16.4 °F /  -8.7 °C 3.2 °F /  -16 °C 30.45in /  1031hPa WNW 0.5mph /  0.8km/h 7mph /  11.3km/h 55.4% 0.00in /  0mm 0 W/m2
22:14 16.3 °F /  -8.7 °C 3.2 °F /  -16 °C 30.45in /  1031hPa Calm   7mph /  11.3km/h 55.6% 0.00in /  0mm 0 W/m2
22:19 16.3 °F /  -8.7 °C 3 °F /  -16.1 °C 30.44in /  1030.7hPa Calm   7mph /  11.3km/h 55% 0.00in /  0mm 0 W/m2
22:24 16.2 °F /  -8.8 °C 3.3 °F /  -15.9 °C 30.45in /  1031hPa Calm   7mph /  11.3km/h 56% 0.00in /  0mm 0 W/m2
22:29 16.1 °F /  -8.8 °C 3.2 °F /  -16 °C 30.45in /  1031hPa WNW 0.1mph /  0.2km/h 7mph /  11.3km/h 56% 0.00in /  0mm 0 W/m2
22:34 16.1 °F /  -8.8 °C 3.3 °F /  -15.9 °C 30.44in /  1030.7hPa Calm   7mph /  11.3km/h 56.4% 0.00in /  0mm 0 W/m2
22:39 15.9 °F /  -8.9 °C 3.4 °F /  -15.9 °C 30.45in /  1031hPa Calm   1mph /  1.6km/h 57% 0.00in /  0mm 0 W/m2
22:44 15.9 °F /  -8.9 °C 3.3 °F /  -15.9 °C 30.44in /  1030.7hPa WNW 0.1mph /  0.2km/h 2mph /  3.2km/h 57% 0.00in /  0mm 0 W/m2
22:49 15.7 °F /  -9.1 °C 3.2 °F /  -16 °C 30.44in /  1030.7hPa WNW 0.2mph /  0.3km/h 2mph /  3.2km/h 57% 0.00in /  0mm 0 W/m2
22:54 15.6 °F /  -9.1 °C 3.4 °F /  -15.9 °C 30.44in /  1030.7hPa WNW 1mph /  1.6km/h 6mph /  9.7km/h 57.8% 0.00in /  0mm 0 W/m2
22:59 15.4 °F /  -9.2 °C 3.5 °F /  -15.8 °C 30.45in /  1031hPa WNW 0.1mph /  0.2km/h 6mph /  9.7km/h 58.6% 0.00in /  0mm 0 W/m2
23:00 15.3 °F /  -9.3 °C 3.6 °F /  -15.8 °C 30.44in /  1030.7hPa Calm   6mph /  9.7km/h 59% 0.00in /  0mm 0 W/m2
23:09 15.2 °F /  -9.3 °C 3.3 °F /  -15.9 °C 30.44in /  1030.7hPa NW 1.2mph /  1.9km/h 6mph /  9.7km/h 58.5% 0.00in /  0mm 0 W/m2
23:14 15.2 °F /  -9.3 °C 3.1 °F /  -16.1 °C 30.44in /  1030.7hPa NW 0.5mph /  0.8km/h 6mph /  9.7km/h 58% 0.00in /  0mm 0 W/m2
23:19 15.3 °F /  -9.3 °C 3.2 °F /  -16 °C 30.44in /  1030.7hPa NW 2.8mph /  4.5km/h 6mph /  9.7km/h 58% 0.00in /  0mm 0 W/m2
23:24 15.3 °F /  -9.3 °C 3 °F /  -16.1 °C 30.44in /  1030.7hPa NW 1.1mph /  1.8km/h 6mph /  9.7km/h 57.3% 0.00in /  0mm 0 W/m2
23:29 15.4 °F /  -9.2 °C 2.9 °F /  -16.2 °C 30.45in /  1031hPa NW 0.5mph /  0.8km/h 6mph /  9.7km/h 57% 0.00in /  0mm 0 W/m2
23:34 15.4 °F /  -9.2 °C 2.9 °F /  -16.2 °C 30.45in /  1031hPa NW 0.5mph /  0.8km/h 6mph /  9.7km/h 56.9% 0.00in /  0mm 0 W/m2
23:39 15.4 °F /  -9.2 °C 2.5 °F /  -16.4 °C 30.45in /  1031hPa Calm   5mph /  8km/h 56% 0.00in /  0mm 0 W/m2
23:44 15.4 °F /  -9.2 °C 2.6 °F /  -16.3 °C 30.45in /  1031hPa NW 0.3mph /  0.5km/h 5mph /  8km/h 56.3% 0.00in /  0mm 0 W/m2
23:49 15.4 °F /  -9.2 °C 2.9 °F /  -16.2 °C 30.45in /  1031hPa NW 1.1mph /  1.8km/h 7mph /  11.3km/h 57% 0.00in /  0mm 0 W/m2
23:54 15.3 °F /  -9.3 °C 2.9 °F /  -16.2 °C 30.45in /  1031hPa NW 0.6mph /  1km/h 7mph /  11.3km/h 57% 0.00in /  0mm 0 W/m2
23:59 15.3 °F /  -9.3 °C 2.8 °F /  -16.2 °C 30.45in /  1031hPa NW 0.1mph /  0.2km/h 7mph /  11.3km/h 57% 0.00in /  0mm 0 W/m2
Hartford County Weather
Compliments of Weather Underground - 2 mb